Terminal Aerodrome Forecast
Issued by NWS Cleveland, OH

Home | Current Version | Previous Version | Text Only | Print | Product List | Glossary On
Versions: 1 2 3 4 5 6 7 8 9 10 11 12 13 14 15 16 17
296
FTUS41 KCLE 281122
TAFERI
TAF
KERI 281122Z 2812/0112 14003KT P6SM OVC250
     FM281500 16012KT P6SM -SHRA OVC050
     FM281800 18012G20KT P6SM VCSH OVC035
     FM282100 18014G20KT P6SM OVC025
     FM010400 18018G28KT P6SM OVC015
     FM011000 20018G28KT 4SM -SHRA BR VCTS OVC008CB WS020/22055KT=

USA.gov is the U.S. government's official web portal to all federal, state and local government web resources and services.